Time;durP1;ratioP1;P1;durP2;ratioP2;P2;SDS_P1;SDS_P2;PMS_P1;PMS_P2;Temp;Humidity;BMP_temperature;BMP_pressure;BME280_temperature;BME280_humidity;BME280_pressure;Samples;Min_cycle;Max_cycle;Signal;HPM_P1;HPM_P2
2024/01/12 05:32:32;;;;;;;0.15;0.15;;;2.20;84.50;;;;;;4980658;28;20100;-82
2024/01/12 05:34:57;;;;;;;0.10;0.10;;;2.20;84.40;;;;;;4996931;28;20104;-79
2024/01/12 05:37:23;;;;;;;0.10;0.10;;;2.30;84.30;;;;;;4983881;28;20035;-83
2024/01/12 05:39:49;;;;;;;0.20;0.20;;;2.20;84.10;;;;;;4977638;28;20931;-81
2024/01/12 05:42:14;;;;;;;0.20;0.20;;;2.30;84.20;;;;;;4997346;28;20053;-81
2024/01/12 05:44:40;;;;;;;0.20;0.20;;;2.30;84.10;;;;;;5000025;28;20061;-81
2024/01/12 05:47:06;;;;;;;0.10;0.10;;;2.30;84.00;;;;;;4980470;28;20022;-82
2024/01/12 05:49:32;;;;;;;0.10;0.10;;;2.40;84.00;;;;;;4988911;28;20094;-79
2024/01/12 05:51:57;;;;;;;0.13;0.13;;;2.40;83.80;;;;;;4999931;28;20022;-81
2024/01/12 05:54:23;;;;;;;0.20;0.20;;;2.40;83.80;;;;;;4997465;28;20109;-78
2024/01/12 05:56:49;;;;;;;0.10;0.10;;;2.40;83.80;;;;;;4989173;28;20098;-80
2024/01/12 05:59:15;;;;;;;0.20;0.20;;;2.50;84.00;;;;;;4961315;28;20442;-81
2024/01/12 06:01:41;;;;;;;0.20;0.20;;;2.60;84.10;;;;;;4977508;28;20068;-81
2024/01/12 06:04:06;;;;;;;0.13;0.13;;;2.70;83.90;;;;;;4997365;28;20030;-80
2024/01/12 06:06:32;;;;;;;0.10;0.10;;;2.80;83.80;;;;;;4995623;28;20027;-79
2024/01/12 06:08:57;;;;;;;0.10;0.10;;;2.90;83.50;;;;;;4997273;28;20034;-81
2024/01/12 06:11:23;;;;;;;0.20;0.20;;;2.90;83.40;;;;;;4997233;28;20018;-82
2024/01/12 06:13:49;;;;;;;0.10;0.10;;;3.00;83.30;;;;;;4977388;28;20027;-83
2024/01/12 06:16:14;;;;;;;0.10;0.10;;;3.00;83.40;;;;;;4978849;28;20034;-82
2024/01/12 06:18:40;;;;;;;0.13;0.13;;;3.10;83.30;;;;;;4982867;28;20038;-79
2024/01/12 06:21:06;;;;;;;0.10;0.10;;;3.10;83.30;;;;;;5013506;28;20029;-80
2024/01/12 06:23:31;;;;;;;0.10;0.10;;;3.10;83.50;;;;;;4987106;28;20084;-83
2024/01/12 06:25:57;;;;;;;0.20;0.20;;;3.00;83.40;;;;;;4995763;28;20040;-83
2024/01/12 06:28:23;;;;;;;0.10;0.10;;;3.00;83.70;;;;;;4996740;28;20453;-83
2024/01/12 06:30:48;;;;;;;0.10;0.10;;;3.00;83.70;;;;;;4975818;28;20134;-84
2024/01/12 06:33:14;;;;;;;0.20;0.20;;;3.10;83.90;;;;;;4974477;28;20063;-84
2024/01/12 06:35:40;;;;;;;0.10;0.10;;;3.20;83.90;;;;;;4988687;28;20609;-80
2024/01/12 06:38:05;;;;;;;0.20;0.20;;;3.20;83.90;;;;;;4976798;28;20034;-80
2024/01/12 06:40:31;;;;;;;0.20;0.20;;;3.20;84.00;;;;;;4969093;28;20034;-80
2024/01/12 06:42:57;;;;;;;0.20;0.20;;;3.20;84.00;;;;;;4974781;28;20558;-80
2024/01/12 06:45:23;;;;;;;0.10;0.10;;;3.30;84.00;;;;;;4958499;28;20488;-80
2024/01/12 06:47:48;;;;;;;0.20;0.20;;;3.30;83.90;;;;;;4958055;28;20030;-82
2024/01/12 06:50:14;;;;;;;0.20;0.20;;;3.20;84.40;;;;;;4958193;28;20034;-80
2024/01/12 06:52:40;;;;;;;0.10;0.10;;;3.20;84.80;;;;;;4957805;28;20063;-80
2024/01/12 06:55:05;;;;;;;0.10;0.10;;;3.30;84.80;;;;;;4976400;28;20098;-80
2024/01/12 06:57:32;;;;;;;0.10;0.10;;;3.30;84.80;;;;;;4975969;28;20066;-80
2024/01/12 06:59:58;;;;;;;0.10;0.10;;;3.30;84.80;;;;;;4976689;28;20518;-80
2024/01/12 07:02:23;;;;;;;0.10;0.10;;;3.40;85.10;;;;;;4972925;28;20102;-80
2024/01/12 07:04:49;;;;;;;0.20;0.20;;;3.50;84.90;;;;;;4959556;28;20032;-80
2024/01/12 07:07:15;;;;;;;0.10;0.10;;;3.50;84.80;;;;;;4976184;28;20030;-80
2024/01/12 07:09:41;;;;;;;0.10;0.10;;;3.60;84.70;;;;;;4973642;28;20027;-80
2024/01/12 07:12:07;;;;;;;0.10;0.10;;;3.70;84.50;;;;;;4975832;28;20030;-80
2024/01/12 07:14:32;;;;;;;0.10;0.10;;;3.70;84.40;;;;;;4977390;28;20026;-80
2024/01/12 07:16:58;;;;;;;0.20;0.20;;;3.70;84.30;;;;;;4972489;28;20047;-80
2024/01/12 07:19:24;;;;;;;0.10;0.10;;;3.80;84.20;;;;;;4973051;28;20031;-80
2024/01/12 07:21:49;;;;;;;0.10;0.10;;;3.80;84.20;;;;;;4972864;28;20027;-80
2024/01/12 07:24:15;;;;;;;0.20;0.20;;;3.70;84.10;;;;;;4973040;28;20517;-80
2024/01/12 07:26:41;;;;;;;0.10;0.10;;;3.80;84.20;;;;;;4972635;28;20554;-80
2024/01/12 07:29:06;;;;;;;0.20;0.20;;;3.80;83.90;;;;;;4971756;28;20019;-80
2024/01/12 07:31:35;;;;;;;0.20;0.20;;;3.80;84.00;;;;;;4969338;28;20050;-80
2024/01/12 07:34:02;;;;;;;0.10;0.10;;;3.70;84.10;;;;;;4960443;28;20031;-79
2024/01/12 07:36:28;;;;;;;0.10;0.10;;;3.80;84.00;;;;;;4992816;28;20030;-80
2024/01/12 07:38:54;;;;;;;0.13;0.13;;;3.70;83.90;;;;;;5000025;28;20027;-79
2024/01/12 07:41:20;;;;;;;0.10;0.10;;;3.80;84.00;;;;;;5000385;28;20383;-79
2024/01/12 07:43:45;;;;;;;0.10;0.10;;;3.80;84.00;;;;;;4984878;28;20025;-79
2024/01/12 07:46:19;;;;;;;0.10;0.10;;;3.80;84.00;;;;;;4983780;28;20035;-80
2024/01/12 07:48:50;;;;;;;0.10;0.10;;;3.80;84.00;;;;;;4979520;28;20027;-80
2024/01/12 07:51:16;;;;;;;0.10;0.10;;;3.90;83.90;;;;;;4977896;28;20043;-80
2024/01/12 07:53:42;;;;;;;0.10;0.10;;;3.90;84.00;;;;;;4980256;28;20018;-80
2024/01/12 07:56:09;;;;;;;0.13;0.13;;;4.00;83.80;;;;;;4980393;28;20461;-79
2024/01/12 07:58:35;;;;;;;0.10;0.10;;;4.00;83.70;;;;;;4963055;28;20529;-79
2024/01/12 08:01:01;;;;;;;0.10;0.10;;;4.00;83.50;;;;;;4980594;28;20057;-79
2024/01/12 08:03:26;;;;;;;0.10;0.10;;;4.00;83.50;;;;;;4963170;28;20031;-79
2024/01/12 08:05:52;;;;;;;0.20;0.20;;;4.10;83.40;;;;;;4990023;28;20124;-80
2024/01/12 08:08:19;;;;;;;0.10;0.10;;;4.00;83.30;;;;;;4994465;28;20019;-80
2024/01/12 08:10:46;;;;;;;0.10;0.10;;;4.00;83.20;;;;;;4979125;28;20026;-80
2024/01/12 08:13:12;;;;;;;0.10;0.10;;;4.10;83.30;;;;;;4979167;28;20743;-80
2024/01/12 08:15:38;;;;;;;0.10;0.10;;;4.10;83.40;;;;;;4977629;28;20031;-80
2024/01/12 08:18:03;;;;;;;0.10;0.10;;;4.10;83.40;;;;;;4979056;28;20117;-80
2024/01/12 08:20:29;;;;;;;0.10;0.10;;;4.10;83.30;;;;;;4984379;28;20088;-80
2024/01/12 08:22:55;;;;;;;0.20;0.20;;;4.10;83.20;;;;;;4999419;28;20061;-80
2024/01/12 08:25:21;;;;;;;0.10;0.10;;;4.20;83.20;;;;;;5001804;28;20030;-80
2024/01/12 08:27:46;;;;;;;0.10;0.10;;;4.10;83.40;;;;;;4986835;28;20590;-80
2024/01/12 08:30:12;;;;;;;0.10;0.10;;;4.20;83.30;;;;;;4962611;28;20063;-80
2024/01/12 08:32:38;;;;;;;0.10;0.10;;;4.20;83.10;;;;;;4980055;28;20426;-80
2024/01/12 08:35:04;;;;;;;0.20;0.20;;;4.20;83.30;;;;;;4977435;28;20041;-80
2024/01/12 08:37:29;;;;;;;0.20;0.20;;;4.20;83.10;;;;;;4981349;28;20027;-80
2024/01/12 08:39:55;;;;;;;0.10;0.10;;;4.20;83.10;;;;;;4993717;28;20118;-79
2024/01/12 08:42:21;;;;;;;0.10;0.10;;;4.20;83.10;;;;;;4974990;28;20031;-80
2024/01/12 08:44:46;;;;;;;0.10;0.10;;;4.20;83.30;;;;;;4991054;28;20068;-80
2024/01/12 08:47:12;;;;;;;0.10;0.10;;;4.20;83.40;;;;;;4998431;28;20022;-79
2024/01/12 08:49:37;;;;;;;0.10;0.10;;;4.20;83.40;;;;;;4996591;28;20114;-80
2024/01/12 08:52:03;;;;;;;0.10;0.10;;;4.30;83.30;;;;;;4980979;28;20064;-79
2024/01/12 08:54:29;;;;;;;0.10;0.10;;;4.30;83.20;;;;;;4998218;28;20042;-80
2024/01/12 08:56:55;;;;;;;0.10;0.10;;;4.40;83.10;;;;;;4996760;28;20023;-80
2024/01/12 08:59:20;;;;;;;0.10;0.10;;;4.50;82.70;;;;;;4980750;28;20054;-80
2024/01/12 09:01:46;;;;;;;0.17;0.17;;;4.50;82.70;;;;;;4977017;28;20042;-81
2024/01/12 09:04:12;;;;;;;0.15;0.15;;;4.50;82.50;;;;;;4991321;28;20029;-78
2024/01/12 09:06:37;;;;;;;0.20;0.20;;;4.60;82.30;;;;;;4975339;28;20069;-80
2024/01/12 09:09:03;;;;;;;0.15;0.15;;;4.70;82.30;;;;;;4998160;28;20022;-81
2024/01/12 09:11:29;;;;;;;0.10;0.10;;;4.70;81.80;;;;;;4981138;28;20101;-80
2024/01/12 09:13:54;;;;;;;0.20;0.20;;;4.70;81.40;;;;;;4974730;28;20025;-80
2024/01/12 09:16:20;;;;;;;0.20;0.20;;;4.70;81.30;;;;;;4997821;28;20073;-81
2024/01/12 09:18:48;;;;;;;0.10;0.10;;;4.80;81.50;;;;;;4997485;28;20025;-81
2024/01/12 09:21:15;;;;;;;0.20;0.20;;;4.80;80.80;;;;;;4991963;28;20022;-80
2024/01/12 09:23:44;;;;;;;0.10;0.10;;;4.70;80.20;;;;;;4996962;28;20510;-80
2024/01/12 09:26:13;;;;;;;0.20;0.20;;;4.70;79.80;;;;;;4997720;28;20109;-81
2024/01/12 09:28:39;;;;;;;0.20;0.20;;;4.80;79.60;;;;;;4994908;28;20023;-81
2024/01/12 09:31:05;;;;;;;0.10;0.10;;;4.80;79.40;;;;;;4997593;28;20057;-81
2024/01/12 09:33:30;;;;;;;0.10;0.10;;;4.80;78.90;;;;;;4979518;28;20025;-80
2024/01/12 09:35:56;;;;;;;0.13;0.13;;;4.80;79.10;;;;;;4977317;28;20470;-80
2024/01/12 09:38:22;;;;;;;0.10;0.10;;;4.80;79.30;;;;;;4979590;28;20027;-80
2024/01/12 09:40:48;;;;;;;0.10;0.10;;;4.90;78.80;;;;;;4997803;28;20038;-80
2024/01/12 09:43:14;;;;;;;0.10;0.10;;;4.90;78.70;;;;;;4994436;28;20022;-80
2024/01/12 09:45:45;;;;;;;0.10;0.10;;;4.90;78.70;;;;;;4982039;28;20072;-80
2024/01/12 09:48:12;;;;;;;0.20;0.20;;;4.90;79.00;;;;;;4997343;28;20014;-79
2024/01/12 09:50:39;;;;;;;0.10;0.10;;;5.00;78.90;;;;;;4996176;28;20444;-80
2024/01/12 09:53:05;;;;;;;0.10;0.10;;;5.00;78.40;;;;;;4980046;28;20030;-80
2024/01/12 09:55:30;;;;;;;0.10;0.10;;;5.00;78.30;;;;;;4979522;28;20524;-80
2024/01/12 09:57:56;;;;;;;0.10;0.10;;;4.90;78.20;;;;;;4979431;28;20104;-79
2024/01/12 10:00:25;;;;;;;0.10;0.10;;;4.90;78.00;;;;;;4995033;28;20034;-80
2024/01/12 10:02:52;;;;;;;0.10;0.10;;;4.90;77.60;;;;;;4979776;28;20068;-80
2024/01/12 10:05:17;;;;;;;0.10;0.10;;;4.90;77.70;;;;;;4976921;28;20099;-80
2024/01/12 10:07:43;;;;;;;0.20;0.20;;;5.00;78.20;;;;;;4978504;28;20043;-79
2024/01/12 10:10:09;;;;;;;0.15;0.15;;;5.00;78.20;;;;;;4978803;28;20486;-79
2024/01/12 10:12:35;;;;;;;0.10;0.10;;;5.10;77.70;;;;;;4977769;28;20022;-80
2024/01/12 10:15:07;;;;;;;0.10;0.10;;;5.10;77.80;;;;;;4995103;28;20544;-80
2024/01/12 10:17:34;;;;;;;0.10;0.10;;;5.00;77.40;;;;;;4997156;28;20027;-80
2024/01/12 10:20:00;;;;;;;0.10;0.10;;;5.10;78.10;;;;;;4982627;28;20045;-81
2024/01/12 10:22:26;;;;;;;0.10;0.10;;;5.10;78.00;;;;;;5007979;28;20030;-79
2024/01/12 10:25:04;;;;;;;0.10;0.10;;;5.20;77.80;;;;;;4975768;28;20487;-79
2024/01/12 10:27:31;;;;;;;0.10;0.10;;;5.20;77.60;;;;;;4978148;28;20505;-79
2024/01/12 10:29:57;;;;;;;0.10;0.10;;;5.10;77.60;;;;;;4973223;28;20453;-79
2024/01/12 10:32:23;;;;;;;0.20;0.20;;;5.20;77.50;;;;;;4997019;28;20092;-79
2024/01/12 10:34:52;;;;;;;0.10;0.10;;;5.20;77.80;;;;;;4981535;28;20544;-79
2024/01/12 10:37:20;;;;;;;0.20;0.20;;;5.30;77.70;;;;;;4961425;28;20057;-79
2024/01/12 10:39:50;;;;;;;0.10;0.10;;;5.30;77.60;;;;;;4977296;28;20091;-79
2024/01/12 10:42:20;;;;;;;0.10;0.10;;;5.40;77.40;;;;;;4979764;28;20474;-80
2024/01/12 10:44:50;;;;;;;0.20;0.20;;;5.40;77.10;;;;;;4976314;28;20461;-81
2024/01/12 10:47:18;;;;;;;0.10;0.10;;;5.50;77.00;;;;;;4976694;28;20026;-79
2024/01/12 10:49:53;;;;;;;0.10;0.10;;;5.40;76.80;;;;;;4994225;28;20080;-78
2024/01/12 10:52:34;;;;;;;0.10;0.10;;;5.50;76.80;;;;;;4997076;28;20025;-79
2024/01/12 10:55:05;;;;;;;0.10;0.10;;;5.50;76.50;;;;;;4996657;28;20026;-79
2024/01/12 10:57:32;;;;;;;0.10;0.10;;;5.50;76.50;;;;;;4977490;28;20027;-78
2024/01/12 10:59:59;;;;;;;0.10;0.10;;;5.40;76.20;;;;;;4965022;28;20034;-83
2024/01/12 11:02:25;;;;;;;0.10;0.10;;;5.30;76.20;;;;;;4981093;28;20026;-79
2024/01/12 11:04:52;;;;;;;0.10;0.10;;;5.40;76.30;;;;;;4979088;28;20027;-77
2024/01/12 11:07:18;;;;;;;0.20;0.20;;;5.40;76.20;;;;;;4981635;28;20364;-78
2024/01/12 11:09:44;;;;;;;0.10;0.10;;;5.50;76.40;;;;;;4980691;28;20066;-77
2024/01/12 11:12:32;;;;;;;0.20;0.20;;;5.50;76.30;;;;;;4983953;28;20023;-78
2024/01/12 11:14:59;;;;;;;0.15;0.15;;;5.50;75.90;;;;;;4969189;28;20035;-78
2024/01/12 11:17:29;;;;;;;0.10;0.10;;;5.50;75.50;;;;;;4992190;28;20037;-78
2024/01/12 11:20:03;;;;;;;0.20;0.20;;;5.50;75.10;;;;;;4999276;28;20083;-78
2024/01/12 11:22:29;;;;;;;0.10;0.10;;;5.40;75.10;;;;;;4980497;28;20098;-78
2024/01/12 11:24:57;;;;;;;0.20;0.20;;;5.50;75.50;;;;;;4980994;28;20059;-79
2024/01/12 11:27:34;;;;;;;0.20;0.20;;;5.50;75.40;;;;;;4980617;28;20045;-79
2024/01/12 11:30:03;;;;;;;0.20;0.20;;;5.50;75.20;;;;;;4980872;28;20038;-78
2024/01/12 11:32:29;;;;;;;0.10;0.10;;;5.60;75.40;;;;;;4980516;28;20038;-78
2024/01/12 11:35:13;;;;;;;0.10;0.10;;;5.60;75.30;;;;;;4965335;28;20042;-78
2024/01/12 11:37:38;;;;;;;0.10;0.10;;;5.70;75.20;;;;;;4992426;28;20042;-78
2024/01/12 11:40:10;;;;;;;0.10;0.10;;;5.70;74.70;;;;;;4985088;28;20393;-79
2024/01/12 11:42:40;;;;;;;0.10;0.10;;;5.60;74.90;;;;;;4998924;28;20030;-79
2024/01/12 11:45:10;;;;;;;0.20;0.20;;;5.60;74.80;;;;;;5012062;28;20038;-79
2024/01/12 11:47:41;;;;;;;0.10;0.10;;;5.70;74.90;;;;;;4980768;28;20034;-79
2024/01/12 11:50:08;;;;;;;0.20;0.20;;;5.70;74.70;;;;;;4980645;28;20031;-79
2024/01/12 11:52:34;;;;;;;0.10;0.10;;;5.70;74.70;;;;;;4980522;28;20057;-78
2024/01/12 11:54:59;;;;;;;0.10;0.10;;;5.80;74.70;;;;;;4980766;28;20031;-78
2024/01/12 11:57:26;;;;;;;0.10;0.10;;;5.80;74.40;;;;;;4980383;28;20190;-78
2024/01/12 11:59:55;;;;;;;0.10;0.10;;;5.80;74.50;;;;;;4984365;28;20026;-78
2024/01/12 12:02:22;;;;;;;0.10;0.10;;;5.90;74.30;;;;;;4999863;28;20057;-78
2024/01/12 12:04:48;;;;;;;0.10;0.10;;;5.80;73.80;;;;;;4999686;28;20085;-78
2024/01/12 12:07:14;;;;;;;0.10;0.10;;;5.80;73.90;;;;;;4995220;28;20117;-78
2024/01/12 12:09:40;;;;;;;0.10;0.10;;;5.90;74.20;;;;;;4999879;28;20493;-78
2024/01/12 12:12:08;;;;;;;0.10;0.10;;;5.90;73.90;;;;;;4982378;28;20027;-78
2024/01/12 12:14:33;;;;;;;0.10;0.10;;;5.90;73.70;;;;;;4981762;28;20034;-78
2024/01/12 12:16:59;;;;;;;0.10;0.10;;;5.90;74.00;;;;;;4999719;28;20146;-78
2024/01/12 12:19:25;;;;;;;0.10;0.10;;;5.80;73.70;;;;;;4999301;28;20037;-78
2024/01/12 12:21:51;;;;;;;0.10;0.10;;;5.80;73.70;;;;;;4997623;28;20031;-78
2024/01/12 12:24:16;;;;;;;0.10;0.10;;;5.70;74.00;;;;;;4980390;28;20027;-78
2024/01/12 12:26:43;;;;;;;0.10;0.10;;;5.80;74.30;;;;;;4979805;28;20031;-78
2024/01/12 12:29:10;;;;;;;0.20;0.20;;;5.80;73.80;;;;;;4967133;28;20030;-78
2024/01/12 12:31:39;;;;;;;0.15;0.15;;;5.80;74.00;;;;;;4979641;28;20055;-78
2024/01/12 12:34:05;;;;;;;0.15;0.15;;;5.90;74.20;;;;;;5014924;28;20030;-78
2024/01/12 12:36:32;;;;;;;0.15;0.15;;;5.90;73.80;;;;;;4981957;28;20027;-78
2024/01/12 12:38:57;;;;;;;0.10;0.10;;;5.80;73.50;;;;;;4979898;28;20030;-78
2024/01/12 12:41:23;;;;;;;0.10;0.10;;;5.90;73.80;;;;;;4988155;28;20561;-78
2024/01/12 12:43:50;;;;;;;0.20;0.20;;;5.90;73.80;;;;;;4962202;28;20074;-78
2024/01/12 12:46:19;;;;;;;0.17;0.17;;;5.90;73.20;;;;;;4979474;28;20030;-78
2024/01/12 12:48:45;;;;;;;0.10;0.10;;;5.90;72.80;;;;;;4979634;28;20041;-78
2024/01/12 12:51:11;;;;;;;0.10;0.10;;;5.90;73.10;;;;;;4978408;28;20015;-78
2024/01/12 12:53:37;;;;;;;0.20;0.20;;;5.70;73.10;;;;;;4978335;28;20111;-79
2024/01/12 12:56:03;;;;;;;0.10;0.10;;;5.70;73.40;;;;;;4979310;28;20569;-78
2024/01/12 12:58:31;;;;;;;0.10;0.10;;;5.70;73.60;;;;;;4977929;28;20041;-78
2024/01/12 13:00:58;;;;;;;0.10;0.10;;;5.70;73.50;;;;;;4974193;28;20113;-78
2024/01/12 13:03:23;;;;;;;0.13;0.13;;;5.70;73.80;;;;;;5014122;28;20052;-78
2024/01/12 13:05:49;;;;;;;0.10;0.10;;;5.70;73.60;;;;;;5001512;28;20029;-78
2024/01/12 13:08:15;;;;;;;0.10;0.10;;;5.60;73.00;;;;;;4998328;28;20023;-79
2024/01/12 13:10:41;;;;;;;0.10;0.10;;;5.70;73.60;;;;;;4989898;28;20434;-78
2024/01/12 13:13:07;;;;;;;0.10;0.10;;;5.70;73.60;;;;;;4979150;28;20026;-79
2024/01/12 13:15:34;;;;;;;0.10;0.10;;;5.70;73.50;;;;;;4979592;28;20059;-78
2024/01/12 13:17:59;;;;;;;0.10;0.10;;;5.70;73.60;;;;;;4979059;28;20118;-78
2024/01/12 13:20:25;;;;;;;0.10;0.10;;;5.80;73.30;;;;;;4978999;28;20069;-78
2024/01/12 13:22:51;;;;;;;0.10;0.10;;;5.80;73.00;;;;;;4978861;28;20499;-78
2024/01/12 13:25:17;;;;;;;0.10;0.10;;;5.80;73.30;;;;;;4979014;28;20030;-78
2024/01/12 13:27:42;;;;;;;0.10;0.10;;;5.90;73.50;;;;;;4978519;28;20034;-79
2024/01/12 13:30:09;;;;;;;0.10;0.10;;;5.90;72.60;;;;;;4978719;28;20030;-79
2024/01/12 13:32:35;;;;;;;0.10;0.10;;;5.80;72.60;;;;;;4977675;28;20023;-78
2024/01/12 13:35:01;;;;;;;0.10;0.10;;;5.80;73.20;;;;;;4981233;28;20088;-78
2024/01/12 13:37:26;;;;;;;0.10;0.10;;;5.80;73.20;;;;;;4997917;28;20030;-78
2024/01/12 13:39:52;;;;;;;0.10;0.10;;;5.80;73.00;;;;;;4995917;28;20061;-78
2024/01/12 13:42:19;;;;;;;0.10;0.10;;;5.80;72.90;;;;;;4994663;28;20035;-79
2024/01/12 13:44:44;;;;;;;0.10;0.10;;;5.80;72.70;;;;;;4978736;28;20031;-79
2024/01/12 13:47:10;;;;;;;0.10;0.10;;;5.80;72.40;;;;;;4978539;28;20027;-79
2024/01/12 13:49:35;;;;;;;0.10;0.10;;;5.80;73.30;;;;;;4978419;28;20026;-78
2024/01/12 13:52:01;;;;;;;0.10;0.10;;;5.80;73.30;;;;;;4976976;28;20089;-78
2024/01/12 13:54:27;;;;;;;0.10;0.10;;;5.90;73.10;;;;;;4996066;28;20100;-79
2024/01/12 13:56:52;;;;;;;0.10;0.10;;;6.00;73.10;;;;;;4978257;28;20554;-78
2024/01/12 13:59:18;;;;;;;0.10;0.10;;;6.00;72.60;;;;;;4968206;28;20093;-79
2024/01/12 14:01:44;;;;;;;0.20;0.20;;;6.00;72.70;;;;;;4981022;28;20438;-79
2024/01/12 14:04:12;;;;;;;0.17;0.17;;;6.00;72.90;;;;;;4977862;28;20066;-78
2024/01/12 14:06:38;;;;;;;0.10;0.10;;;6.00;72.70;;;;;;4976653;28;20034;-79
2024/01/12 14:09:06;;;;;;;0.10;0.10;;;6.00;72.50;;;;;;4977757;28;20034;-79
2024/01/12 14:11:33;;;;;;;0.10;0.10;;;5.90;72.20;;;;;;4978182;28;20078;-79
2024/01/12 14:14:00;;;;;;;0.20;0.20;;;5.80;72.20;;;;;;4976355;28;20027;-78
2024/01/12 14:16:26;;;;;;;0.10;0.10;;;5.80;72.50;;;;;;4978160;28;20027;-79
2024/01/12 14:18:52;;;;;;;0.13;0.13;;;5.80;72.50;;;;;;4977971;28;20038;-78
2024/01/12 14:21:18;;;;;;;0.10;0.10;;;5.70;72.50;;;;;;4977929;28;20034;-78
2024/01/12 14:23:44;;;;;;;0.10;0.10;;;5.70;72.50;;;;;;4977607;28;20410;-78
2024/01/12 14:26:11;;;;;;;0.10;0.10;;;5.60;72.80;;;;;;4977815;28;20027;-79
2024/01/12 14:28:37;;;;;;;0.10;0.10;;;5.70;73.00;;;;;;4975272;28;20034;-78
2024/01/12 14:31:05;;;;;;;0.17;0.17;;;5.60;72.50;;;;;;4975763;28;20039;-78
2024/01/12 14:33:34;;;;;;;0.10;0.10;;;5.60;72.60;;;;;;4977742;28;20031;-78
2024/01/12 14:36:02;;;;;;;0.10;0.10;;;5.60;72.40;;;;;;4996127;28;20029;-79
2024/01/12 14:38:28;;;;;;;0.10;0.10;;;5.70;72.80;;;;;;4996976;28;20033;-79
2024/01/12 14:40:54;;;;;;;0.20;0.20;;;5.60;72.10;;;;;;4985991;28;20023;-78
2024/01/12 14:43:19;;;;;;;0.10;0.10;;;5.60;72.40;;;;;;4977002;28;20613;-78
2024/01/12 14:45:45;;;;;;;0.10;0.10;;;5.70;72.40;;;;;;4977919;28;20026;-78
2024/01/12 14:48:12;;;;;;;0.13;0.13;;;5.70;72.10;;;;;;4977565;28;20106;-78
2024/01/12 14:50:40;;;;;;;0.10;0.10;;;5.70;72.00;;;;;;4977291;28;20102;-78
2024/01/12 14:53:06;;;;;;;0.10;0.10;;;5.70;72.30;;;;;;4977486;28;20058;-78
2024/01/12 14:55:33;;;;;;;0.10;0.10;;;5.70;72.30;;;;;;4976332;28;20034;-78
2024/01/12 14:57:59;;;;;;;0.10;0.10;;;5.70;72.10;;;;;;4977081;28;20035;-78
2024/01/12 15:00:24;;;;;;;0.10;0.10;;;5.60;72.30;;;;;;4968534;28;20552;-79
2024/01/12 15:02:50;;;;;;;0.10;0.10;;;5.60;72.30;;;;;;4996818;28;20035;-78
2024/01/12 15:05:16;;;;;;;0.10;0.10;;;5.60;72.60;;;;;;4974612;28;20513;-79
2024/01/12 15:07:42;;;;;;;0.10;0.10;;;5.60;72.60;;;;;;4960180;28;20410;-78
2024/01/12 15:10:10;;;;;;;0.10;0.10;;;5.60;72.60;;;;;;4960306;28;20114;-78
2024/01/12 15:12:36;;;;;;;0.10;0.10;;;5.70;72.90;;;;;;4977523;28;20035;-78
2024/01/12 15:15:03;;;;;;;0.10;0.10;;;5.70;72.70;;;;;;4986692;28;20057;-78
2024/01/12 15:17:28;;;;;;;0.10;0.10;;;5.70;73.00;;;;;;4990339;28;20097;-78
2024/01/12 15:19:54;;;;;;;0.10;0.10;;;5.60;72.90;;;;;;4979962;28;20031;-78
2024/01/12 15:22:20;;;;;;;0.10;0.10;;;5.60;72.90;;;;;;4980771;28;20545;-78
2024/01/12 15:24:46;;;;;;;0.10;0.10;;;5.60;73.00;;;;;;4966306;28;20031;-77
2024/01/12 15:27:12;;;;;;;0.10;0.10;;;5.50;73.20;;;;;;4982484;28;20061;-76
2024/01/12 15:29:37;;;;;;;0.10;0.10;;;5.50;73.30;;;;;;4993228;28;20018;-76
2024/01/12 15:32:03;;;;;;;0.10;0.10;;;5.50;73.20;;;;;;4978307;28;20081;-77
2024/01/12 15:34:29;;;;;;;0.10;0.10;;;5.50;73.10;;;;;;4995982;28;20041;-76
2024/01/12 15:36:55;;;;;;;0.10;0.10;;;5.50;72.70;;;;;;4993089;28;20030;-77
2024/01/12 15:39:21;;;;;;;0.10;0.10;;;5.40;72.90;;;;;;4992297;28;20137;-76
2024/01/12 15:41:46;;;;;;;0.20;0.20;;;5.40;72.80;;;;;;4990951;28;20030;-76
2024/01/12 15:44:12;;;;;;;0.10;0.10;;;5.30;73.20;;;;;;4996208;28;20101;-77
2024/01/12 15:46:37;;;;;;;0.10;0.10;;;5.40;73.10;;;;;;4993369;28;20027;-76
2024/01/12 15:49:03;;;;;;;0.10;0.10;;;5.50;72.90;;;;;;4978869;28;20033;-77
2024/01/12 15:51:29;;;;;;;0.10;0.10;;;5.50;72.40;;;;;;4994780;28;20482;-76
2024/01/12 15:53:54;;;;;;;0.10;0.10;;;5.30;72.60;;;;;;4995539;28;20018;-76
2024/01/12 15:56:20;;;;;;;0.10;0.10;;;5.20;73.00;;;;;;4998151;28;20089;-77
2024/01/12 15:58:46;;;;;;;0.10;0.10;;;5.30;73.20;;;;;;4981509;28;20486;-76
2024/01/12 16:01:25;;;;;;;0.10;0.10;;;5.30;73.30;;;;;;4981609;28;20034;-76
2024/01/12 16:03:51;;;;;;;0.10;0.10;;;5.20;73.60;;;;;;4997016;28;20050;-76
2024/01/12 16:06:16;;;;;;;0.10;0.10;;;5.30;73.40;;;;;;4999180;28;20037;-76
2024/01/12 16:08:42;;;;;;;0.10;0.10;;;5.30;73.40;;;;;;4999071;28;20132;-77
2024/01/12 16:11:20;;;;;;;0.10;0.10;;;5.20;73.30;;;;;;4996593;28;20437;-76
2024/01/12 16:13:47;;;;;;;0.10;0.10;;;5.20;73.40;;;;;;4998992;28;20092;-77
2024/01/12 16:16:13;;;;;;;0.10;0.10;;;5.20;73.20;;;;;;4999301;28;20026;-76
2024/01/12 16:18:39;;;;;;;0.10;0.10;;;5.20;73.60;;;;;;4996927;28;20026;-76
2024/01/12 16:21:05;;;;;;;0.10;0.10;;;5.20;73.20;;;;;;4981870;28;20098;-76
2024/01/12 16:23:30;;;;;;;0.20;0.20;;;5.20;72.90;;;;;;4997252;28;20455;-76
2024/01/12 16:25:57;;;;;;;0.10;0.10;;;5.20;73.30;;;;;;4999005;28;20041;-76
2024/01/12 16:28:23;;;;;;;0.15;0.15;;;5.10;72.80;;;;;;4981610;28;20029;-76
2024/01/12 16:30:48;;;;;;;0.10;0.10;;;5.10;73.20;;;;;;4998015;28;20046;-76
2024/01/12 16:33:14;;;;;;;0.10;0.10;;;5.20;73.40;;;;;;4996924;28;20386;-76
2024/01/12 16:35:40;;;;;;;0.10;0.10;;;5.20;73.40;;;;;;4998486;28;20084;-76
2024/01/12 16:38:06;;;;;;;0.10;0.10;;;5.20;73.20;;;;;;5000341;28;20461;-76
2024/01/12 16:40:32;;;;;;;0.10;0.10;;;5.20;73.00;;;;;;4996809;28;20084;-76
2024/01/12 16:42:57;;;;;;;0.10;0.10;;;5.10;73.10;;;;;;4979647;28;20026;-77
2024/01/12 16:45:23;;;;;;;0.10;0.10;;;5.10;73.30;;;;;;4980354;28;20033;-76
2024/01/12 16:47:49;;;;;;;0.10;0.10;;;5.10;73.40;;;;;;4981470;28;20027;-77
2024/01/12 16:50:15;;;;;;;0.20;0.20;;;5.20;73.70;;;;;;4997594;28;20018;-78
2024/01/12 16:52:41;;;;;;;0.10;0.10;;;5.20;73.40;;;;;;4980903;28;20113;-76
2024/01/12 16:55:08;;;;;;;0.10;0.10;;;5.20;73.50;;;;;;4980860;28;20112;-77
2024/01/12 16:57:38;;;;;;;0.10;0.10;;;5.20;73.40;;;;;;4980679;28;20034;-77
2024/01/12 17:00:09;;;;;;;0.17;0.17;;;5.20;73.50;;;;;;4980524;28;20022;-76
2024/01/12 17:02:36;;;;;;;0.20;0.20;;;5.20;73.40;;;;;;4986416;28;20026;-76
2024/01/12 17:05:01;;;;;;;0.10;0.10;;;5.20;73.60;;;;;;4996882;28;20568;-76
2024/01/12 17:07:27;;;;;;;0.15;0.15;;;5.20;73.60;;;;;;4995638;28;20030;-77
2024/01/12 17:09:53;;;;;;;0.10;0.10;;;5.30;73.40;;;;;;4978881;28;20026;-76
2024/01/12 17:12:18;;;;;;;0.10;0.10;;;5.20;73.30;;;;;;4995699;28;20379;-76
2024/01/12 17:14:44;;;;;;;0.10;0.10;;;5.20;73.50;;;;;;4980180;28;20050;-76
2024/01/12 17:17:09;;;;;;;0.10;0.10;;;5.20;73.80;;;;;;4997684;28;20133;-76
2024/01/12 17:19:35;;;;;;;0.10;0.10;;;5.10;73.60;;;;;;4995356;28;20027;-75
2024/01/12 17:22:01;;;;;;;0.10;0.10;;;5.20;73.60;;;;;;4997873;28;20041;-76
2024/01/12 17:24:28;;;;;;;0.20;0.20;;;5.10;73.40;;;;;;4980408;28;20018;-76
2024/01/12 17:26:54;;;;;;;0.10;0.10;;;5.10;73.40;;;;;;4994415;28;20022;-77
2024/01/12 17:29:20;;;;;;;0.10;0.10;;;5.20;73.70;;;;;;4992038;28;20081;-77
2024/01/12 17:31:50;;;;;;;0.10;0.10;;;5.20;73.70;;;;;;4991553;28;20062;-76
2024/01/12 17:34:16;;;;;;;0.10;0.10;;;5.10;73.60;;;;;;4979358;28;20019;-77
2024/01/12 17:36:47;;;;;;;0.13;0.13;;;5.20;73.70;;;;;;4982930;28;20062;-76
2024/01/12 17:39:15;;;;;;;0.10;0.10;;;5.20;73.60;;;;;;4973639;28;20049;-76
2024/01/12 17:41:41;;;;;;;0.10;0.10;;;5.10;73.70;;;;;;4993704;28;20022;-76
2024/01/12 17:44:07;;;;;;;0.10;0.10;;;5.20;73.80;;;;;;4980149;28;20046;-76
2024/01/12 17:46:32;;;;;;;0.10;0.10;;;5.10;73.80;;;;;;4992861;28;20026;-75
2024/01/12 17:48:58;;;;;;;0.10;0.10;;;5.20;74.10;;;;;;4996447;28;20025;-76
2024/01/12 17:51:23;;;;;;;0.10;0.10;;;5.20;74.00;;;;;;4993968;28;20042;-76
2024/01/12 17:53:49;;;;;;;0.10;0.10;;;5.20;73.80;;;;;;4980467;28;20042;-75
2024/01/12 17:56:15;;;;;;;0.10;0.10;;;5.20;73.90;;;;;;4976621;28;20493;-76
2024/01/12 17:58:41;;;;;;;0.20;0.20;;;5.20;73.60;;;;;;4993338;28;20441;-75
2024/01/12 18:01:07;;;;;;;0.10;0.10;;;5.20;73.80;;;;;;4990668;28;20030;-77
2024/01/12 18:03:33;;;;;;;0.15;0.15;;;5.20;73.70;;;;;;4996007;28;20072;-76
2024/01/12 18:06:01;;;;;;;0.17;0.17;;;5.10;73.30;;;;;;4974229;28;20037;-80
2024/01/12 18:08:27;;;;;;;0.10;0.10;;;5.10;73.70;;;;;;4996500;28;20089;-81
2024/01/12 18:10:53;;;;;;;0.20;0.20;;;5.00;73.60;;;;;;4991732;28;20049;-75
2024/01/12 18:13:19;;;;;;;0.20;0.20;;;5.00;73.70;;;;;;4996354;28;20026;-78
2024/01/12 18:15:44;;;;;;;0.10;0.10;;;5.10;73.60;;;;;;4994014;28;20509;-77
2024/01/12 18:18:10;;;;;;;0.10;0.10;;;5.10;73.60;;;;;;4978906;28;20516;-77
2024/01/12 18:20:36;;;;;;;0.10;0.10;;;5.10;73.60;;;;;;4978487;28;20027;-77
2024/01/12 18:23:01;;;;;;;0.10;0.10;;;5.10;73.70;;;;;;4979108;28;20027;-77
2024/01/12 18:25:28;;;;;;;0.20;0.20;;;5.20;73.90;;;;;;4971007;28;20490;-76